createdAt,value
2019-03-27T00:01:10.101Z,12.07
2019-03-27T00:03:40.256Z,13.27
2019-03-27T00:06:10.382Z,13.47
2019-03-27T00:08:40.509Z,13.00
2019-03-27T00:11:10.650Z,13.60
2019-03-27T00:13:40.606Z,13.33
2019-03-27T00:16:10.691Z,14.37
2019-03-27T00:18:40.842Z,14.47
2019-03-27T00:21:10.767Z,14.37
2019-03-27T00:23:40.802Z,13.23
2019-03-27T00:26:10.857Z,14.30
2019-03-27T00:28:40.938Z,15.10
2019-03-27T00:31:12.011Z,14.83
2019-03-27T00:33:42.163Z,14.43
2019-03-27T00:36:12.179Z,15.27
2019-03-27T00:38:42.311Z,15.27
2019-03-27T00:41:12.301Z,17.17
2019-03-27T00:43:42.299Z,16.83
2019-03-27T00:46:12.293Z,16.40
2019-03-27T00:48:42.245Z,16.17
2019-03-27T00:51:12.264Z,16.97
2019-03-27T00:53:42.171Z,16.90
2019-03-27T00:56:12.164Z,17.57
2019-03-27T00:58:42.297Z,17.23
2019-03-27T01:01:14.090Z,16.67
2019-03-27T01:03:44.034Z,16.77
2019-03-27T01:06:14.506Z,16.67
2019-03-27T01:08:44.500Z,15.83
2019-03-27T01:11:14.567Z,17.30
2019-03-27T01:13:44.717Z,17.73
2019-03-27T01:16:14.751Z,17.73
2019-03-27T01:18:44.855Z,18.30
2019-03-27T01:21:14.945Z,17.40
2019-03-27T01:23:45.187Z,18.33
2019-03-27T01:26:15.309Z,17.33
2019-03-27T01:28:45.415Z,18.03
2019-03-27T01:31:15.507Z,18.33
2019-03-27T01:33:45.602Z,17.77
2019-03-27T01:36:15.677Z,17.40
2019-03-27T01:38:45.921Z,18.93
2019-03-27T01:41:16.123Z,18.47
2019-03-27T01:43:46.251Z,18.73
2019-03-27T01:46:16.357Z,18.73
2019-03-27T01:48:46.415Z,19.80
2019-03-27T01:51:16.547Z,18.83
2019-03-27T01:53:46.703Z,18.60
2019-03-27T01:56:16.763Z,18.93
2019-03-27T01:58:46.922Z,19.17
2019-03-27T02:01:17.057Z,18.83
2019-03-27T02:03:47.149Z,19.23
2019-03-27T02:06:17.197Z,20.50
2019-03-27T02:08:47.160Z,19.33
2019-03-27T02:11:17.243Z,19.93
2019-03-27T02:13:47.347Z,20.10
2019-03-27T02:16:17.443Z,20.70
2019-03-27T02:18:47.533Z,19.73
2019-03-27T02:21:17.615Z,21.10
2019-03-27T02:23:47.673Z,19.60
2019-03-27T02:26:17.721Z,20.73
2019-03-27T02:28:47.901Z,21.57
2019-03-27T02:31:18.031Z,21.60
2019-03-27T02:33:48.098Z,22.80
2019-03-27T02:36:18.185Z,20.50
2019-03-27T02:38:48.270Z,20.23
2019-03-27T02:41:18.252Z,21.83
2019-03-27T02:43:48.270Z,21.73
2019-03-27T02:46:25.143Z,21.17
2019-03-27T02:48:49.982Z,22.37
2019-03-27T02:51:20.100Z,22.90
2019-03-27T02:53:50.125Z,20.83
2019-03-27T02:56:20.220Z,25.73
2019-03-27T02:58:50.652Z,20.80
2019-03-27T03:01:20.779Z,20.10
2019-03-27T03:03:50.926Z,21.67
2019-03-27T03:06:20.978Z,21.50
2019-03-27T03:08:51.137Z,22.60
2019-03-27T03:11:21.350Z,22.33
2019-03-27T03:13:51.432Z,22.13
2019-03-27T03:16:21.446Z,21.13
2019-03-27T03:18:51.647Z,22.63
2019-03-27T03:21:21.840Z,22.97
2019-03-27T03:23:52.052Z,22.93
2019-03-27T03:26:22.161Z,21.07
2019-03-27T03:28:52.259Z,23.20
2019-03-27T03:31:22.254Z,20.97
2019-03-27T03:33:52.372Z,22.57
2019-03-27T03:36:22.555Z,23.30
2019-03-27T03:38:52.638Z,22.77
2019-03-27T03:41:22.686Z,23.27
2019-03-27T03:43:52.818Z,25.57
2019-03-27T03:46:22.856Z,22.03
2019-03-27T03:48:52.877Z,23.27
2019-03-27T03:51:29.489Z,24.50
2019-03-27T03:54:02.787Z,23.60
2019-03-27T03:56:36.455Z,23.30
2019-03-27T03:59:07.455Z,23.30
2019-03-27T04:01:38.048Z,23.80
2019-03-27T04:04:11.474Z,22.77
2019-03-27T04:06:42.717Z,24.63
2019-03-27T04:09:12.997Z,22.90
2019-03-27T04:11:43.963Z,22.50
2019-03-27T04:14:15.390Z,24.93
2019-03-27T04:16:46.661Z,22.70
2019-03-27T04:19:18.301Z,25.57
2019-03-27T04:21:50.872Z,26.13
2019-03-27T04:24:30.661Z,24.90
2019-03-27T04:27:05.610Z,25.63
2019-03-27T04:29:37.203Z,27.20
2019-03-27T04:32:08.720Z,27.17
2019-03-27T04:34:40.534Z,24.97
2019-03-27T04:37:13.319Z,24.77
2019-03-27T04:39:46.995Z,23.83
2019-03-27T04:42:19.756Z,24.67
2019-03-27T04:44:54.473Z,25.30
2019-03-27T04:47:32.428Z,25.20
2019-03-27T04:50:03.641Z,26.37
2019-03-27T04:52:37.216Z,25.93
2019-03-27T04:55:11.730Z,26.13
2019-03-27T04:57:44.320Z,26.20
2019-03-27T05:00:15.661Z,25.87
2019-03-27T05:02:49.657Z,29.27
2019-03-27T05:05:21.565Z,26.97
2019-03-27T05:07:53.633Z,25.40
2019-03-27T05:10:25.388Z,26.20
2019-03-27T05:13:04.388Z,25.70
2019-03-27T05:15:35.989Z,27.30
2019-03-27T05:18:13.669Z,25.77
2019-03-27T05:20:48.738Z,25.87
2019-03-27T05:23:20.200Z,26.23
2019-03-27T05:25:57.958Z,27.23
2019-03-27T05:28:32.488Z,26.90
2019-03-27T05:31:04.143Z,27.47
2019-03-27T05:33:35.086Z,27.87
2019-03-27T05:36:09.114Z,26.90
2019-03-27T05:38:41.257Z,27.93
2019-03-27T05:41:12.776Z,26.40
2019-03-27T05:43:43.382Z,27.77
2019-03-27T05:46:15.399Z,27.23
2019-03-27T05:48:46.893Z,27.10
2019-03-27T05:51:18.802Z,27.50
2019-03-27T05:53:49.900Z,25.77
2019-03-27T05:56:26.479Z,26.00
2019-03-27T05:58:59.028Z,26.80
2019-03-27T06:01:31.619Z,25.93
2019-03-27T06:04:04.408Z,25.90
2019-03-27T06:06:35.868Z,26.47
2019-03-27T06:09:07.939Z,27.87
2019-03-27T06:11:39.668Z,26.13
2019-03-27T06:14:11.168Z,25.67
2019-03-27T06:16:43.077Z,26.03
2019-03-27T06:19:14.118Z,27.63
2019-03-27T06:21:50.741Z,26.63
2019-03-27T06:24:21.840Z,25.83
2019-03-27T06:26:54.105Z,26.07
2019-03-27T06:29:25.962Z,27.43
2019-03-27T06:31:57.474Z,26.10
2019-03-27T06:34:31.001Z,24.80
2019-03-27T06:37:02.926Z,27.30
2019-03-27T06:39:34.648Z,26.83
2019-03-27T06:42:09.377Z,26.73
2019-03-27T06:44:43.810Z,25.97
2019-03-27T06:47:18.514Z,26.07
2019-03-27T06:49:52.268Z,25.17
2019-03-27T06:52:24.132Z,24.60
2019-03-27T06:54:55.952Z,26.57
2019-03-27T06:57:28.232Z,25.70
2019-03-27T07:00:02.626Z,26.40
2019-03-27T07:02:34.052Z,25.20
2019-03-27T07:05:05.615Z,23.93
2019-03-27T07:07:39.892Z,23.90
2019-03-27T07:10:13.911Z,24.33
2019-03-27T07:12:45.293Z,24.73
2019-03-27T07:15:16.204Z,25.17
2019-03-27T07:17:47.656Z,24.27
2019-03-27T07:20:21.909Z,24.20
2019-03-27T07:22:53.232Z,25.47
2019-03-27T07:25:27.348Z,23.77
2019-03-27T07:28:02.722Z,25.37
2019-03-27T07:30:35.391Z,25.93
2019-03-27T07:33:10.112Z,25.87
2019-03-27T07:35:41.127Z,24.37
2019-03-27T07:38:14.258Z,24.03
2019-03-27T07:40:47.632Z,25.23
2019-03-27T07:43:18.636Z,25.57
2019-03-27T07:45:52.274Z,23.73
2019-03-27T07:48:24.286Z,22.73
2019-03-27T07:50:57.683Z,23.53
2019-03-27T07:53:32.392Z,22.87
2019-03-27T07:56:05.470Z,23.40
2019-03-27T07:58:39.246Z,24.37
2019-03-27T08:01:09.352Z,23.60
2019-03-27T08:03:42.835Z,24.03
2019-03-27T08:06:16.953Z,24.47
2019-03-27T08:08:49.824Z,24.40
2019-03-27T08:11:21.126Z,24.60
2019-03-27T08:13:52.260Z,24.20
2019-03-27T08:16:23.509Z,23.57
2019-03-27T08:19:06.957Z,23.37
2019-03-27T08:21:31.496Z,23.57
2019-03-27T08:24:04.893Z,22.97
2019-03-27T08:26:35.918Z,22.83
2019-03-27T08:29:07.250Z,22.67
2019-03-27T08:31:38.708Z,23.27
2019-03-27T08:34:11.901Z,21.27
2019-03-27T08:36:43.725Z,22.63
2019-03-27T08:39:20.650Z,22.90
2019-03-27T08:41:53.187Z,20.93
2019-03-27T08:44:30.818Z,21.23
2019-03-27T08:47:04.670Z,19.63
2019-03-27T08:49:37.610Z,19.30
2019-03-27T08:52:09.186Z,19.57
2019-03-27T08:54:40.781Z,17.20
2019-03-27T08:57:12.240Z,17.43
2019-03-27T08:59:43.475Z,18.40
2019-03-27T09:02:16.532Z,16.93
2019-03-27T09:04:48.379Z,16.47
2019-03-27T09:07:24.075Z,15.57
2019-03-27T09:09:56.404Z,15.33
2019-03-27T09:12:32.294Z,15.17
2019-03-27T09:15:03.750Z,15.20
2019-03-27T09:17:35.975Z,14.87
2019-03-27T09:20:11.666Z,14.40
2019-03-27T09:22:45.922Z,15.17
2019-03-27T09:25:18.867Z,11.97
2019-03-27T09:27:50.135Z,11.70
2019-03-27T09:30:33.363Z,12.03
2019-03-27T09:33:07.957Z,10.90
2019-03-27T09:35:41.131Z,11.43
2019-03-27T09:38:12.482Z,10.70
2019-03-27T09:40:43.899Z,11.97
2019-03-27T09:43:15.516Z,10.97
2019-03-27T09:45:47.109Z,10.57
2019-03-27T09:48:22.221Z,10.83
2019-03-27T09:50:53.697Z,11.37
2019-03-27T09:53:24.591Z,10.30
2019-03-27T09:55:58.492Z,9.60
2019-03-27T09:58:34.775Z,10.17
2019-03-27T10:01:09.642Z,10.33
2019-03-27T10:03:46.541Z,9.87
2019-03-27T10:06:17.891Z,9.60
2019-03-27T10:08:48.862Z,10.10
2019-03-27T10:11:19.321Z,10.07
2019-03-27T10:13:51.786Z,10.10
2019-03-27T10:16:25.641Z,10.20
2019-03-27T10:18:56.361Z,9.90
2019-03-27T10:21:28.283Z,10.77
2019-03-27T10:23:59.059Z,9.70
2019-03-27T10:26:32.601Z,10.37
2019-03-27T10:29:06.414Z,10.90
2019-03-27T10:31:39.587Z,10.20
2019-03-27T10:34:10.747Z,9.67
2019-03-27T10:36:44.598Z,9.73
2019-03-27T10:39:14.957Z,9.03
2019-03-27T10:41:47.916Z,9.30
2019-03-27T10:44:18.721Z,9.50
2019-03-27T10:46:54.123Z,9.37
2019-03-27T10:49:26.759Z,9.53
2019-03-27T10:52:00.873Z,10.00
2019-03-27T10:54:31.379Z,11.27
2019-03-27T10:57:07.511Z,11.03
2019-03-27T10:59:45.521Z,13.70
2019-03-27T11:02:21.985Z,13.17
2019-03-27T11:04:54.011Z,11.97
2019-03-27T11:07:24.481Z,12.20
2019-03-27T11:09:55.125Z,11.33
2019-03-27T11:12:25.633Z,10.20
2019-03-27T11:14:56.141Z,9.43
2019-03-27T11:17:29.967Z,8.87
2019-03-27T11:20:02.896Z,10.13
2019-03-27T11:22:33.487Z,9.33
2019-03-27T11:25:05.351Z,9.03
2019-03-27T11:27:37.371Z,8.97
2019-03-27T11:30:11.721Z,7.17
2019-03-27T11:32:42.641Z,6.60
2019-03-27T11:35:13.356Z,8.13
2019-03-27T11:37:48.963Z,6.20
2019-03-27T11:40:22.141Z,6.50
2019-03-27T11:42:52.809Z,8.00
2019-03-27T11:45:23.591Z,7.83
2019-03-27T11:48:00.741Z,8.23
2019-03-27T11:50:44.569Z,7.30
2019-03-27T11:53:17.403Z,8.80
2019-03-27T11:55:47.833Z,7.70
2019-03-27T11:58:21.975Z,6.83
2019-03-27T12:00:57.339Z,7.00
2019-03-27T12:03:28.462Z,6.77
2019-03-27T12:05:59.269Z,7.50
2019-03-27T12:08:50.982Z,10.17
2019-03-27T12:11:33.153Z,10.73
2019-03-27T12:14:40.406Z,8.37
2019-03-27T12:17:12.719Z,10.60
2019-03-27T12:19:46.363Z,7.10
2019-03-27T12:22:17.050Z,7.70
2019-03-27T12:24:53.064Z,7.30
2019-03-27T12:27:31.018Z,7.53
2019-03-27T12:30:01.904Z,7.20
2019-03-27T12:32:34.636Z,7.50
2019-03-27T12:35:05.243Z,8.60
2019-03-27T12:37:37.837Z,8.83
2019-03-27T12:40:12.822Z,7.40
2019-03-27T12:42:48.216Z,6.93
2019-03-27T12:45:24.136Z,6.60
2019-03-27T12:47:56.962Z,6.70
2019-03-27T12:50:37.784Z,6.20
2019-03-27T12:53:10.526Z,6.20
2019-03-27T12:55:41.080Z,6.33
2019-03-27T12:58:17.938Z,6.33
2019-03-27T13:00:50.918Z,6.50
2019-03-27T13:03:21.230Z,6.37
2019-03-27T13:06:01.217Z,6.80
2019-03-27T13:08:31.886Z,5.87
2019-03-27T13:11:06.221Z,6.07
2019-03-27T13:13:43.998Z,6.53
2019-03-27T13:16:17.735Z,6.43
2019-03-27T13:18:51.533Z,6.63
2019-03-27T13:21:28.162Z,6.23
2019-03-27T13:23:58.962Z,6.97
2019-03-27T13:26:29.475Z,6.47
2019-03-27T13:29:06.769Z,7.40
2019-03-27T13:31:39.957Z,6.93
2019-03-27T13:34:12.367Z,6.80
2019-03-27T13:36:48.228Z,7.33
2019-03-27T13:39:19.762Z,7.20
2019-03-27T13:41:51.991Z,7.27
2019-03-27T13:44:31.386Z,7.47
2019-03-27T13:46:54.804Z,6.80
2019-03-27T13:49:29.143Z,6.70
2019-03-27T13:52:08.795Z,7.23
2019-03-27T13:54:45.249Z,6.47
2019-03-27T13:57:20.646Z,6.93
2019-03-27T13:59:51.395Z,7.03
2019-03-27T14:02:24.901Z,6.77
2019-03-27T14:04:55.286Z,6.20
2019-03-27T14:07:26.118Z,5.93
2019-03-27T14:09:59.969Z,6.00
2019-03-27T14:12:33.615Z,5.83
2019-03-27T14:15:06.279Z,6.17
2019-03-27T14:17:38.503Z,5.60
2019-03-27T14:20:10.121Z,5.87
2019-03-27T14:22:42.486Z,6.07
2019-03-27T14:25:16.088Z,5.67
2019-03-27T14:27:51.105Z,5.67
2019-03-27T14:30:54.877Z,5.40
2019-03-27T14:33:37.510Z,5.80
2019-03-27T14:36:08.480Z,6.13
2019-03-27T14:38:41.510Z,5.47
2019-03-27T14:41:17.146Z,5.40
2019-03-27T14:43:45.309Z,5.83
2019-03-27T14:46:21.548Z,6.27
2019-03-27T14:48:52.024Z,6.17
2019-03-27T14:51:24.231Z,5.70
2019-03-27T14:53:54.983Z,5.97
2019-03-27T14:56:28.604Z,5.57
2019-03-27T14:59:04.049Z,6.30
2019-03-27T15:01:44.773Z,5.97
2019-03-27T15:04:17.301Z,5.60
2019-03-27T15:06:50.823Z,5.37
2019-03-27T15:09:25.369Z,5.77
2019-03-27T15:11:56.441Z,5.13
2019-03-27T15:14:32.643Z,5.80
2019-03-27T15:17:03.287Z,5.13
2019-03-27T15:19:34.089Z,5.23
2019-03-27T15:22:22.183Z,6.13
2019-03-27T15:24:50.877Z,5.43
2019-03-27T15:27:24.246Z,5.70
2019-03-27T15:30:01.125Z,5.40
2019-03-27T15:32:31.433Z,5.67
2019-03-27T15:35:01.951Z,6.17
2019-03-27T15:37:36.493Z,6.07
2019-03-27T15:40:14.747Z,6.17
2019-03-27T15:42:51.810Z,6.50
2019-03-27T15:45:22.639Z,8.30
2019-03-27T15:47:53.100Z,6.97
2019-03-27T15:50:26.395Z,8.13
2019-03-27T15:52:58.344Z,6.37
2019-03-27T15:55:29.563Z,6.53
2019-03-27T15:58:01.587Z,6.83
2019-03-27T16:00:35.435Z,7.60
2019-03-27T16:03:07.091Z,12.93
2019-03-27T16:05:38.903Z,8.03
2019-03-27T16:08:13.138Z,6.93
2019-03-27T16:10:44.722Z,6.50
2019-03-27T16:13:18.419Z,15.20
2019-03-27T16:15:53.357Z,7.63
2019-03-27T16:18:24.640Z,6.20
2019-03-27T16:20:55.993Z,6.80
2019-03-27T16:23:27.682Z,6.60
2019-03-27T16:26:01.318Z,6.63
2019-03-27T16:28:42.334Z,6.73
2019-03-27T16:31:15.148Z,6.90
2019-03-27T16:33:48.464Z,7.00
2019-03-27T16:36:19.882Z,7.17
2019-03-27T16:38:50.920Z,7.60
2019-03-27T16:41:22.507Z,7.00
2019-03-27T16:43:53.698Z,8.27
2019-03-27T16:46:25.060Z,6.73
2019-03-27T16:48:56.651Z,7.50
2019-03-27T16:51:29.463Z,6.53
2019-03-27T16:54:06.334Z,7.93
2019-03-27T16:56:39.754Z,7.47
2019-03-27T16:59:11.688Z,10.63
2019-03-27T17:01:43.146Z,7.30
2019-03-27T17:04:14.978Z,8.47
2019-03-27T17:06:46.500Z,8.20
2019-03-27T17:09:18.318Z,7.33
2019-03-27T17:11:49.958Z,58.97
2019-03-27T17:14:24.110Z,57.40
2019-03-27T17:16:59.687Z,26.90
2019-03-27T17:19:31.206Z,23.83
2019-03-27T17:22:02.422Z,8.10
2019-03-27T17:24:34.005Z,12.53
2019-03-27T17:27:08.546Z,63.27
2019-03-27T17:29:41.821Z,18.47
2019-03-27T17:32:13.056Z,11.40
2019-03-27T17:34:45.966Z,15.47
2019-03-27T17:37:17.286Z,9.27
2019-03-27T17:39:52.150Z,8.53
2019-03-27T17:42:24.891Z,8.63
2019-03-27T17:44:56.037Z,7.73
2019-03-27T17:47:27.370Z,9.90
2019-03-27T17:50:00.983Z,8.30
2019-03-27T17:52:31.821Z,8.40
2019-03-27T17:55:05.847Z,8.43
2019-03-27T17:57:38.224Z,10.63
2019-03-27T18:00:10.308Z,9.60
2019-03-27T18:02:46.855Z,10.60
2019-03-27T18:05:21.255Z,10.77
2019-03-27T18:07:55.163Z,13.57
2019-03-27T18:10:30.855Z,12.13
2019-03-27T18:13:05.627Z,12.50
2019-03-27T18:15:39.792Z,13.07
2019-03-27T18:18:11.362Z,38.60
2019-03-27T18:20:43.117Z,25.27
2019-03-27T18:23:14.420Z,31.87
2019-03-27T18:25:45.694Z,24.33
2019-03-27T18:28:22.652Z,22.30
2019-03-27T18:30:55.142Z,17.87
2019-03-27T18:33:27.627Z,15.70
2019-03-27T18:35:59.040Z,14.43
2019-03-27T18:38:32.239Z,14.67
2019-03-27T18:41:04.035Z,16.73
2019-03-27T18:43:35.831Z,16.60
2019-03-27T18:46:07.524Z,23.40
2019-03-27T18:48:42.108Z,18.60
2019-03-27T18:51:12.500Z,18.50
2019-03-27T18:53:59.038Z,39.10
2019-03-27T18:56:20.902Z,27.77
2019-03-27T18:58:52.358Z,16.53
2019-03-27T19:01:24.227Z,16.73
2019-03-27T19:03:57.515Z,17.73
2019-03-27T19:06:28.683Z,25.17
2019-03-27T19:09:03.279Z,20.77
2019-03-27T19:11:36.931Z,17.93
2019-03-27T19:14:08.235Z,17.97
2019-03-27T19:16:39.921Z,24.10
2019-03-27T19:19:11.954Z,20.10
2019-03-27T19:21:45.419Z,17.60
2019-03-27T19:24:19.435Z,17.20
2019-03-27T19:26:51.057Z,17.10
2019-03-27T19:29:22.851Z,28.47
2019-03-27T19:31:53.409Z,26.57
2019-03-27T19:34:26.940Z,29.00
2019-03-27T19:37:00.690Z,18.33
2019-03-27T19:39:35.321Z,18.87
2019-03-27T19:42:06.474Z,20.00
2019-03-27T19:44:39.809Z,20.00
2019-03-27T19:47:15.517Z,18.93
2019-03-27T19:49:50.198Z,19.10
2019-03-27T19:52:26.660Z,32.40
2019-03-27T19:54:57.887Z,22.17
2019-03-27T19:57:28.363Z,19.77
2019-03-27T20:00:01.522Z,20.37
2019-03-27T20:02:41.116Z,21.83
2019-03-27T20:05:12.934Z,22.67
2019-03-27T20:07:44.270Z,21.50
2019-03-27T20:10:17.232Z,21.50
2019-03-27T20:12:52.049Z,21.57
2019-03-27T20:15:22.401Z,21.03
2019-03-27T20:17:53.240Z,19.90
2019-03-27T20:20:25.926Z,21.57
2019-03-27T20:22:57.787Z,23.07
2019-03-27T20:25:29.178Z,30.30
2019-03-27T20:28:07.205Z,22.67
2019-03-27T20:30:46.244Z,26.90
2019-03-27T20:33:20.327Z,25.00
2019-03-27T20:35:52.266Z,23.97
2019-03-27T20:38:22.592Z,23.40
2019-03-27T20:40:55.635Z,23.50
2019-03-27T20:43:28.305Z,22.23
2019-03-27T20:46:04.056Z,22.73
2019-03-27T20:48:35.813Z,20.73
2019-03-27T20:51:07.438Z,22.50
2019-03-27T20:53:44.416Z,22.20
2019-03-27T20:56:22.631Z,22.17
2019-03-27T20:59:01.577Z,21.33
2019-03-27T21:01:33.968Z,20.03
2019-03-27T21:04:10.532Z,20.17
2019-03-27T21:06:48.713Z,20.53
2019-03-27T21:09:20.438Z,21.10
2019-03-27T21:11:56.139Z,19.93
2019-03-27T21:14:32.904Z,21.00
2019-03-27T21:17:10.654Z,19.83
2019-03-27T21:19:41.958Z,20.27
2019-03-27T21:22:17.036Z,21.00
2019-03-27T21:24:52.317Z,21.87
2019-03-27T21:27:24.141Z,22.70
2019-03-27T21:29:55.762Z,22.83
2019-03-27T21:32:38.748Z,24.27
2019-03-27T21:35:39.121Z,24.40
2019-03-27T21:38:09.161Z,26.17
2019-03-27T21:40:40.347Z,25.50
2019-03-27T21:43:17.679Z,26.43
2019-03-27T21:45:49.102Z,25.00
2019-03-27T21:48:20.447Z,26.50
2019-03-27T21:50:54.680Z,24.90
2019-03-27T21:53:43.670Z,23.97
2019-03-27T21:56:16.823Z,24.53
2019-03-27T21:58:47.255Z,24.80
2019-03-27T22:01:18.034Z,23.37
2019-03-27T22:03:48.257Z,23.43
2019-03-27T22:06:18.371Z,23.60
2019-03-27T22:08:48.835Z,23.13
2019-03-27T22:11:18.910Z,23.90
2019-03-27T22:13:49.157Z,23.80
2019-03-27T22:16:19.713Z,24.30
2019-03-27T22:18:49.778Z,22.23
2019-03-27T22:21:20.405Z,23.93
2019-03-27T22:23:50.788Z,22.13
2019-03-27T22:26:21.013Z,21.97
2019-03-27T22:28:51.373Z,21.73
2019-03-27T22:31:21.564Z,21.20
2019-03-27T22:33:51.966Z,21.07
2019-03-27T22:36:22.132Z,21.73
2019-03-27T22:38:52.386Z,21.30
2019-03-27T22:41:22.596Z,22.37
2019-03-27T22:43:52.999Z,21.53
2019-03-27T22:46:23.237Z,21.10
2019-03-27T22:48:53.413Z,20.07
2019-03-27T22:51:23.740Z,21.17
2019-03-27T22:53:55.702Z,20.13
2019-03-27T22:56:25.805Z,20.93
2019-03-27T22:58:56.040Z,20.47
2019-03-27T23:01:27.618Z,21.77
2019-03-27T23:03:57.898Z,20.80
2019-03-27T23:06:27.890Z,20.73
2019-03-27T23:08:57.992Z,20.90
2019-03-27T23:11:28.176Z,20.10
2019-03-27T23:13:58.379Z,20.10
2019-03-27T23:16:28.694Z,20.80
2019-03-27T23:19:00.948Z,19.83
2019-03-27T23:21:33.655Z,20.13
2019-03-27T23:24:07.877Z,21.03
2019-03-27T23:26:39.014Z,20.70
2019-03-27T23:29:09.448Z,19.80
2019-03-27T23:31:39.585Z,20.70
2019-03-27T23:34:09.812Z,21.60
2019-03-27T23:36:40.000Z,20.87
2019-03-27T23:39:10.766Z,22.60
2019-03-27T23:41:41.092Z,23.60
2019-03-27T23:44:11.350Z,22.20
2019-03-27T23:46:41.480Z,22.57
2019-03-27T23:49:11.673Z,23.23
2019-03-27T23:51:41.741Z,22.70
2019-03-27T23:54:11.924Z,23.40
2019-03-27T23:56:42.152Z,21.63
2019-03-27T23:59:12.546Z,23.23
